Observation data for Levelland on 05/15/2018      Previous  Date  Next       Current Mesonet Observations  Soil Data  Daily Summary Page  Observations in Plain Language
KLD1 150500Z 14011G16KT 23/10 A2995 RMK A01 T02260097  RH  045%=      5-min Rain = 0
KLD1 150505Z 14012G17KT 22/10 A2995 RMK A01 T02240098  RH  046%=      5-min Rain = 0
KLD1 150510Z 14012KT 22/10 A2995 RMK A01 T02230100  RH  046%=      5-min Rain = 0
KLD1 150515Z 14013KT 22/10 A2996 RMK A01 T02230102  RH  047%=      5-min Rain = 0
KLD1 150520Z 15013KT 22/11 A2996 RMK A01 T02220107  RH  049%=      5-min Rain = 0
KLD1 150525Z 15013KT 22/11 A2996 RMK A01 T02210112  RH  051%=      5-min Rain = 0
KLD1 150530Z 15013KT 22/12 A2996 RMK A01 T02210118  RH  053%=      5-min Rain = 0
KLD1 150535Z 15013KT 22/12 A2996 RMK A01 T02210124  RH  055%=      5-min Rain = 0
KLD1 150540Z 15012KT 22/13 A2996 RMK A01 T02200126  RH  056%=      5-min Rain = 0
KLD1 150545Z 15012KT 22/13 A2996 RMK A01 T02190129  RH  058%=      5-min Rain = 0
KLD1 150550Z 16011KT 22/13 A2997 RMK A01 T02180131  RH  059%=      5-min Rain = 0
KLD1 150555Z 16010KT 22/13 A2997 RMK A01 T02180133  RH  060%=      5-min Rain = 0
KLD1 150600Z 16011KT 22/13 A2996 RMK A01 T02170134  RH  060%=      5-min Rain = 0
KLD1 150605Z 16011KT 22/14 A2996 RMK A01 T02170135  RH  061%=      5-min Rain = 0
KLD1 150610Z 17011KT 22/14 A2996 RMK A01 T02160136  RH  061%=      5-min Rain = 0
KLD1 150615Z 16012KT 22/14 A2996 RMK A01 T02160137  RH  062%=      5-min Rain = 0
KLD1 150620Z 16012KT 22/14 A2997 RMK A01 T02150138  RH  063%=      5-min Rain = 0
KLD1 150625Z 16010KT 21/14 A2997 RMK A01 T02140139  RH  064%=      5-min Rain = 0
KLD1 150630Z 16011KT 21/14 A2997 RMK A01 T02120140  RH  065%=      5-min Rain = 0
KLD1 150635Z 16010KT 21/14 A2996 RMK A01 T02110140  RH  065%=      5-min Rain = 0
KLD1 150640Z 16011KT 21/14 A2996 RMK A01 T02100142  RH  066%=      5-min Rain = 0
KLD1 150645Z 16011KT 21/14 A2996 RMK A01 T02100144  RH  067%=      5-min Rain = 0
KLD1 150650Z 16012KT 21/15 A2996 RMK A01 T02090147  RH  069%=      5-min Rain = 0
KLD1 150655Z 16014KT 21/15 A2996 RMK A01 T02100150  RH  070%=      5-min Rain = 0
KLD1 150700Z 16014KT 21/15 A2996 RMK A01 T02100151  RH  071%=      5-min Rain = 0
KLD1 150705Z 17013KT 21/15 A2996 RMK A01 T02090153  RH  072%=      5-min Rain = 0
KLD1 150710Z 17013KT 21/15 A2997 RMK A01 T02090153  RH  072%=      5-min Rain = 0
KLD1 150715Z 17011KT 21/15 A2997 RMK A01 T02070153  RH  073%=      5-min Rain = 0
KLD1 150720Z 17011KT 21/15 A2997 RMK A01 T02060153  RH  074%=      5-min Rain = 0
KLD1 150725Z 17012KT 21/15 A2997 RMK A01 T02050154  RH  074%=      5-min Rain = 0
KLD1 150730Z 17012KT 20/16 A2997 RMK A01 T02040155  RH  075%=      5-min Rain = 0
KLD1 150735Z 17013KT 20/16 A2997 RMK A01 T02030156  RH  076%=      5-min Rain = 0
KLD1 150740Z 17014KT 20/16 A2997 RMK A01 T02020158  RH  077%=      5-min Rain = 0
KLD1 150745Z 17014KT 20/16 A2997 RMK A01 T02010158  RH  078%=      5-min Rain = 0
KLD1 150750Z 17015KT 20/16 A2997 RMK A01 T02000158  RH  078%=      5-min Rain = 0
KLD1 150755Z 17015G20KT 20/16 A2996 RMK A01 T01990158  RH  079%=      5-min Rain = 0
KLD1 150800Z 17015KT 20/16 A2997 RMK A01 T01990158  RH  079%=      5-min Rain = 0
KLD1 150805Z 18017KT 20/16 A2996 RMK A01 T01980158  RH  080%=      5-min Rain = 0
KLD1 150810Z 18016KT 20/16 A2996 RMK A01 T01970159  RH  080%=      5-min Rain = 0
KLD1 150815Z 18016G21KT 20/16 A2996 RMK A01 T01960159  RH  081%=      5-min Rain = 0
KLD1 150820Z 18018G24KT 20/16 A2996 RMK A01 T01960160  RH  081%=      5-min Rain = 0
KLD1 150825Z 17017G22KT 20/16 A2996 RMK A01 T01960160  RH  082%=      5-min Rain = 0
KLD1 150830Z 17017KT 20/16 A2997 RMK A01 T01950160  RH  082%=      5-min Rain = 0
KLD1 150835Z 17015G20KT 19/16 A2997 RMK A01 T01940160  RH  083%=      5-min Rain = 0
KLD1 150840Z 17015KT 20/16 A2997 RMK A01 T01950161  RH  083%=      5-min Rain = 0
KLD1 150845Z 17018G24KT 20/16 A2997 RMK A01 T01960162  RH  083%=      5-min Rain = 0
KLD1 150850Z 18018G24KT 20/16 A2997 RMK A01 T01960162  RH  083%=      5-min Rain = 0
KLD1 150855Z 18018KT 20/16 A2997 RMK A01 T01950162  RH  083%=      5-min Rain = 0
KLD1 150900Z 18019KT 19/16 A2996 RMK A01 T01940162  RH  083%=      5-min Rain = 0
KLD1 150905Z 18019G25KT 19/16 A2996 RMK A01 T01930162  RH  084%=      5-min Rain = 0
KLD1 150910Z 18018KT 19/16 A2996 RMK A01 T01930162  RH  084%=      5-min Rain = 0
KLD1 150915Z 18017G22KT 19/16 A2996 RMK A01 T01920162  RH  085%=      5-min Rain = 0
KLD1 150920Z 18016G21KT 19/16 A2996 RMK A01 T01910162  RH  085%=      5-min Rain = 0
KLD1 150925Z 18015KT 19/16 A2996 RMK A01 T01900162  RH  085%=      5-min Rain = 0
KLD1 150930Z 18015KT 19/16 A2996 RMK A01 T01900162  RH  086%=      5-min Rain = 0
KLD1 150935Z 18015KT 19/16 A2996 RMK A01 T01890162  RH  086%=      5-min Rain = 0
KLD1 150940Z 19015KT 19/16 A2996 RMK A01 T01890162  RH  087%=      5-min Rain = 0
KLD1 150945Z 19014KT 19/16 A2996 RMK A01 T01880162  RH  087%=      5-min Rain = 0
KLD1 150950Z 19014G19KT 19/16 A2996 RMK A01 T01870162  RH  087%=      5-min Rain = 0
KLD1 150955Z 19015KT 19/16 A2996 RMK A01 T01870162  RH  088%=      5-min Rain = 0
KLD1 151000Z 19015KT 19/16 A2996 RMK A01 T01860162  RH  088%=      5-min Rain = 0
KLD1 151005Z 20014KT 19/16 A2996 RMK A01 T01860162  RH  088%=      5-min Rain = 0
KLD1 151010Z 20014KT 19/16 A2996 RMK A01 T01850161  RH  088%=      5-min Rain = 0
KLD1 151015Z 19013KT 19/16 A2996 RMK A01 T01850161  RH  088%=      5-min Rain = 0
KLD1 151020Z 19013KT 18/16 A2996 RMK A01 T01840160  RH  088%=      5-min Rain = 0
KLD1 151025Z 19013KT 18/16 A2996 RMK A01 T01840160  RH  088%=      5-min Rain = 0
KLD1 151030Z 19013KT 18/16 A2996 RMK A01 T01830160  RH  088%=      5-min Rain = 0
KLD1 151035Z 20012KT 18/16 A2996 RMK A01 T01830160  RH  089%=      5-min Rain = 0
KLD1 151040Z 20012KT 18/16 A2996 RMK A01 T01820160  RH  089%=      5-min Rain = 0
KLD1 151045Z 20012KT 18/16 A2996 RMK A01 T01810160  RH  089%=      5-min Rain = 0
KLD1 151050Z 20012KT 18/16 A2996 RMK A01 T01820161  RH  090%=      5-min Rain = 0
KLD1 151055Z 20013KT 18/16 A2996 RMK A01 T01820161  RH  090%=      5-min Rain = 0
KLD1 151100Z 19013KT 18/16 A2996 RMK A01 T01820162  RH  090%=      5-min Rain = 0
KLD1 151105Z 19013KT 18/16 A2996 RMK A01 T01820162  RH  090%=      5-min Rain = 0
KLD1 151110Z 19013KT 18/16 A2997 RMK A01 T01820162  RH  090%=      5-min Rain = 0
KLD1 151115Z 19012KT 18/16 A2996 RMK A01 T01820162  RH  090%=      5-min Rain = 0
KLD1 151120Z 19012KT 18/16 A2996 RMK A01 T01810162  RH  090%=      5-min Rain = 0
KLD1 151125Z 19011KT 18/16 A2997 RMK A01 T01810162  RH  091%=      5-min Rain = 0
KLD1 151130Z 20011KT 18/16 A2997 RMK A01 T01800162  RH  091%=      5-min Rain = 0
KLD1 151135Z 20012KT 18/16 A2997 RMK A01 T01800162  RH  091%=      5-min Rain = 0
KLD1 151140Z 21011KT 18/16 A2997 RMK A01 T01800162  RH  091%=      5-min Rain = 0
KLD1 151145Z 21012KT 18/16 A2997 RMK A01 T01800161  RH  091%=      5-min Rain = 0
KLD1 151150Z 20011KT 18/16 A2997 RMK A01 T01790161  RH  091%=      5-min Rain = 0
KLD1 151155Z 21011KT 18/16 A2997 RMK A01 T01790161  RH  091%=      5-min Rain = 0
KLD1 151200Z 20011KT 18/16 A2997 RMK A01 T01790162  RH  092%=      5-min Rain = 0
KLD1 151205Z 21012KT 18/16 A2998 RMK A01 T01810164  RH  092%=      5-min Rain = 0
KLD1 151210Z 21014KT 18/17 A2998 RMK A01 T01820165  RH  092%=      5-min Rain = 0
KLD1 151215Z 21015G20KT 18/17 A2998 RMK A01 T01840165  RH  091%=      5-min Rain = 0
KLD1 151220Z 21017KT 18/17 A2998 RMK A01 T01840165  RH  090%=      5-min Rain = 0
KLD1 151225Z 21016G21KT 19/16 A2998 RMK A01 T01850164  RH  090%=      5-min Rain = 0
KLD1 151230Z 22017KT 19/16 A2998 RMK A01 T01850163  RH  089%=      5-min Rain = 0
KLD1 151235Z 22017KT 19/16 A2998 RMK A01 T01850163  RH  089%=      5-min Rain = 0
KLD1 151240Z 21016KT 19/16 A2998 RMK A01 T01860164  RH  089%=      5-min Rain = 0
KLD1 151245Z 22018G24KT 19/16 A2998 RMK A01 T01870164  RH  088%=      5-min Rain = 0
KLD1 151250Z 22019KT 19/16 A2998 RMK A01 T01890164  RH  087%=      5-min Rain = 0
KLD1 151255Z 21017G22KT 19/16 A2998 RMK A01 T01900163  RH  086%=      5-min Rain = 0
KLD1 151300Z 22017G23KT 19/16 A2999 RMK A01 T01910163  RH  085%=      5-min Rain = 0
KLD1 151305Z 22018KT 19/16 A2999 RMK A01 T01920162  RH  085%=      5-min Rain = 0
KLD1 151310Z 22017KT 19/16 A2999 RMK A01 T01930162  RH  084%=      5-min Rain = 0
KLD1 151315Z 22018KT 19/16 A2999 RMK A01 T01940162  RH  084%=      5-min Rain = 0
KLD1 151320Z 22016KT 20/16 A2999 RMK A01 T01960163  RH  083%=      5-min Rain = 0
KLD1 151325Z 22017KT 20/16 A2999 RMK A01 T01980162  RH  082%=      5-min Rain = 0
KLD1 151330Z 22017KT 20/16 A2999 RMK A01 T01990162  RH  081%=      5-min Rain = 0
KLD1 151335Z 22019KT 20/16 A2999 RMK A01 T02000160  RH  079%=      5-min Rain = 0
KLD1 151340Z 22019KT 20/16 A2999 RMK A01 T02010159  RH  078%=      5-min Rain = 0
KLD1 151345Z 22019KT 20/16 A2999 RMK A01 T02030157  RH  077%=      5-min Rain = 0
KLD1 151350Z 22017KT 21/16 A2999 RMK A01 T02050158  RH  076%=      5-min Rain = 0
KLD1 151355Z 22016KT 21/16 A2999 RMK A01 T02070158  RH  075%=      5-min Rain = 0
KLD1 151400Z 22015KT 21/16 A2999 RMK A01 T02110158  RH  073%=      5-min Rain = 0
KLD1 151405Z 22015KT 21/16 A2999 RMK A01 T02140156  RH  071%=      5-min Rain = 0
KLD1 151410Z 22015KT 22/16 A2999 RMK A01 T02190156  RH  069%=      5-min Rain = 0
KLD1 151415Z 22016KT 22/15 A2999 RMK A01 T02210154  RH  067%=      5-min Rain = 0
KLD1 151420Z 23016KT 22/15 A2999 RMK A01 T02240154  RH  066%=      5-min Rain = 0
KLD1 151425Z 23015KT 23/15 A2999 RMK A01 T02280152  RH  064%=      5-min Rain = 0
KLD1 151430Z 23014KT 23/15 A2999 RMK A01 T02320152  RH  062%=      5-min Rain = 0
KLD1 151435Z 24012KT 24/15 A2999 RMK A01 T02380151  RH  060%=      5-min Rain = 0
KLD1 151440Z 24013KT 24/15 A30 RMK A01 T02430149  RH  057%=      5-min Rain = 0
KLD1 151445Z 28013KT 25/15 A3002 RMK A01 T02470148  RH  055%=      5-min Rain = 0
KLD1 151450Z 26012G17KT 25/14 A3001 RMK A01 T02500144  RH  053%=      5-min Rain = 0
KLD1 151455Z 26012KT 25/14 A3001 RMK A01 T02510141  RH  051%=      5-min Rain = 0
KLD1 151500Z 27012KT 25/14 A3002 RMK A01 T02530141  RH  051%=      5-min Rain = 0
KLD1 151505Z 28011G16KT 26/14 A3002 RMK A01 T02560140  RH  050%=      5-min Rain = 0
KLD1 151510Z 28013KT 26/14 A3002 RMK A01 T02590140  RH  049%=      5-min Rain = 0
KLD1 151515Z 27013KT 26/14 A3002 RMK A01 T02580139  RH  049%=      5-min Rain = 0
KLD1 151520Z 27014G19KT 26/13 A3002 RMK A01 T02630133  RH  046%=      5-min Rain = 0
KLD1 151525Z 27014KT 27/13 A3002 RMK A01 T02650131  RH  044%=      5-min Rain = 0
KLD1 151530Z 28014KT 27/12 A3002 RMK A01 T02700122  RH  041%=      5-min Rain = 0
KLD1 151535Z 30015G20KT 28/11 A3002 RMK A01 T02750111  RH  037%=      5-min Rain = 0
KLD1 151540Z 30015G21KT 27/11 A3002 RMK A01 T02740113  RH  037%=      5-min Rain = 0
KLD1 151545Z 29016G21KT 27/11 A3002 RMK A01 T02730112  RH  037%=      5-min Rain = 0
KLD1 151550Z 30015KT 28/12 A3002 RMK A01 T02760119  RH  038%=      5-min Rain = 0
KLD1 151555Z 30017KT 28/11 A3002 RMK A01 T02750110  RH  036%=      5-min Rain = 0
KLD1 151600Z 29016KT 28/11 A3002 RMK A01 T02750106  RH  035%=      5-min Rain = 0
KLD1 151605Z 29016G21KT 28/11 A3003 RMK A01 T02770109  RH  036%=      5-min Rain = 0
KLD1 151610Z 30016G22KT 28/10 A3003 RMK A01 T02760104  RH  035%=      5-min Rain = 0
KLD1 151615Z 30016KT 28/09 A3003 RMK A01 T02760089  RH  031%=      5-min Rain = 0
KLD1 151620Z 30016G21KT 27/08 A3003 RMK A01 T02730077  RH  029%=      5-min Rain = 0
KLD1 151625Z 31013KT 28/07 A3003 RMK A01 T02760074  RH  028%=      5-min Rain = 0
KLD1 151630Z 31014KT 28/06 A3004 RMK A01 T02800057  RH  025%=      5-min Rain = 0
KLD1 151635Z 30011KT 28/05 A3003 RMK A01 T02800048  RH  023%=      5-min Rain = 0
KLD1 151640Z 29013G18KT 28/05 A3003 RMK A01 T02830046  RH  022%=      5-min Rain = 0
KLD1 151645Z 30011G16KT 29/04 A3003 RMK A01 T02880042  RH  021%=      5-min Rain = 0
KLD1 151650Z 31013G18KT 29/04 A3004 RMK A01 T02860037  RH  021%=      5-min Rain = 0
KLD1 151655Z 32010KT 28/04 A3004 RMK A01 T02820035  RH  021%=      5-min Rain = 0
KLD1 151700Z 30011G16KT 29/04 A3004 RMK A01 T02860038  RH  021%=      5-min Rain = 0
KLD1 151705Z 34012KT 29/05 A3004 RMK A01 T02880045  RH  022%=      5-min Rain = 0
KLD1 151710Z 33011KT 29/05 A3003 RMK A01 T02870048  RH  022%=      5-min Rain = 0
KLD1 151715Z 35009KT 29/05 A3004 RMK A01 T02880049  RH  022%=      5-min Rain = 0
KLD1 151720Z 33008KT 29/05 A3003 RMK A01 T02920050  RH  022%=      5-min Rain = 0
KLD1 151725Z 33007G12KT 29/06 A3003 RMK A01 T02920056  RH  023%=      5-min Rain = 0
KLD1 151730Z 35010G17KT 30/06 A3003 RMK A01 T02950057  RH  022%=      5-min Rain = 0
KLD1 151735Z 00008G16KT 29/06 A3003 RMK A01 T02930057  RH  023%=      5-min Rain = 0
KLD1 151740Z 33009KT 30/06 A3003 RMK A01 T02970058  RH  022%=      5-min Rain = 0
KLD1 151745Z 34006G11KT 30/06 A3003 RMK A01 T02970057  RH  022%=      5-min Rain = 0
KLD1 151750Z 33007G13KT 30/06 A3003 RMK A01 T03000057  RH  022%=      5-min Rain = 0
KLD1 151755Z 35008KT 30/06 A3003 RMK A01 T03010060  RH  022%=      5-min Rain = 0
KLD1 151800Z 00009G14KT 30/06 A3003 RMK A01 T03020058  RH  022%=      5-min Rain = 0
KLD1 151805Z 36009G14KT 30/06 A3003 RMK A01 T03000060  RH  022%=      5-min Rain = 0
KLD1 151810Z 36009G15KT 30/06 A3002 RMK A01 T03030059  RH  022%=      5-min Rain = 0
KLD1 151815Z 01006KT 30/06 A3002 RMK A01 T03040057  RH  021%=      5-min Rain = 0
KLD1 151820Z 34006KT 31/06 A3002 RMK A01 T03060057  RH  021%=      5-min Rain = 0
KLD1 151825Z 32006G11KT 31/05 A3002 RMK A01 T03090054  RH  020%=      5-min Rain = 0
KLD1 151830Z 00007KT 31/06 A3002 RMK A01 T03090058  RH  021%=      5-min Rain = 0
KLD1 151835Z 33008KT 31/06 A3002 RMK A01 T03110055  RH  020%=      5-min Rain = 0
KLD1 151840Z 33004KT 31/05 A3002 RMK A01 T03100053  RH  020%=      5-min Rain = 0
KLD1 151845Z 03006G12KT 31/05 A3002 RMK A01 T03120050  RH  019%=      5-min Rain = 0
KLD1 151850Z 02009KT 32/05 A3001 RMK A01 T03160049  RH  019%=      5-min Rain = 0
KLD1 151855Z 03007G12KT 31/04 A3001 RMK A01 T03130044  RH  019%=      5-min Rain = 0
KLD1 151900Z 01006G11KT 31/04 A3001 RMK A01 T03140042  RH  018%=      5-min Rain = 0
KLD1 151905Z 02005G10KT 31/04 A3001 RMK A01 T03130043  RH  018%=      5-min Rain = 0
KLD1 151910Z 01005G10KT 32/04 A3001 RMK A01 T03150043  RH  018%=      5-min Rain = 0
KLD1 151915Z 00007KT 32/04 A30 RMK A01 T03190039  RH  017%=      5-min Rain = 0
KLD1 151920Z 35004G9KT 32/03 A3001 RMK A01 T03180032  RH  017%=      5-min Rain = 0
KLD1 151925Z 09003KT 32/03 A30 RMK A01 T03200030  RH  016%=      5-min Rain = 0
KLD1 151930Z 15002KT 32/03 A30 RMK A01 T03180026  RH  016%=      5-min Rain = 0
KLD1 151935Z 02002G8KT 32/03 A30 RMK A01 T03210025  RH  015%=      5-min Rain = 0
KLD1 151940Z 34006KT 32/03 A30 RMK A01 T03240032  RH  016%=      5-min Rain = 0
KLD1 151945Z 34009KT 33/03 A30 RMK A01 T03270026  RH  015%=      5-min Rain = 0
KLD1 151950Z 33006KT 33/02 A30 RMK A01 T03280022  RH  015%=      5-min Rain = 0
KLD1 151955Z 28005KT 33/02 A2999 RMK A01 T03250017  RH  014%=      5-min Rain = 0
KLD1 152000Z 03007KT 33/03 A2999 RMK A01 T03270027  RH  015%=      5-min Rain = 0
KLD1 152005Z 05006KT 33/02 A2999 RMK A01 T03280024  RH  015%=      5-min Rain = 0
KLD1 152010Z 10005KT 32/02 A2999 RMK A01 T03230024  RH  015%=      5-min Rain = 0
KLD1 152015Z 11005KT 32/02 A2999 RMK A01 T03230022  RH  015%=      5-min Rain = 0
KLD1 152020Z 08006G11KT 33/02 A2998 RMK A01 T03250020  RH  015%=      5-min Rain = 0
KLD1 152025Z 02009G14KT 33/02 A2998 RMK A01 T03280023  RH  015%=      5-min Rain = 0
KLD1 152030Z 04006KT 33/02 A2998 RMK A01 T03320017  RH  014%=      5-min Rain = 0
KLD1 152035Z 06003G8KT 33/01 A2998 RMK A01 T03290011  RH  013%=      5-min Rain = 0
KLD1 152040Z 05003KT 33/01 A2997 RMK A01 T03280009  RH  013%=      5-min Rain = 0
KLD1 152045Z 02004G10KT 33/01 A2997 RMK A01 T03300009  RH  013%=      5-min Rain = 0
KLD1 152050Z 04007G12KT 34/01 A2997 RMK A01 T03380006  RH  012%=      5-min Rain = 0
KLD1 152055Z 07003KT 33/00 A2996 RMK A01 T03320001  RH  012%=      5-min Rain = 0
KLD1 152100Z 09003KT 33/00 A2996 RMK A01 T03330000  RH  012%=      5-min Rain = 0
KLD1 152105Z 36002KT 34/00 A2996 RMK A01 T03370002  RH  012%=      5-min Rain = 0
KLD1 152110Z 31008G14KT 34/00 A2996 RMK A01 T03380001  RH  012%=      5-min Rain = 0
KLD1 152115Z 32007KT 33/00 A2995 RMK A01 T033400-0  RH  012%=      5-min Rain = 0
KLD1 152120Z 29010KT 34/00 A2995 RMK A01 T03380004  RH  012%=      5-min Rain = 0
KLD1 152125Z 27007KT 34/00 A2995 RMK A01 T03370004  RH  012%=      5-min Rain = 0
KLD1 152130Z 29006G11KT 34/00 A2995 RMK A01 T03390000  RH  012%=      5-min Rain = 0
KLD1 152135Z 27003G8KT 34/00 A2994 RMK A01 T033800-0  RH  012%=      5-min Rain = 0
KLD1 152140Z 26004G11KT 34/00 A2994 RMK A01 T03410001  RH  012%=      5-min Rain = 0
KLD1 152145Z 28006KT 34/00 A2994 RMK A01 T03420000  RH  012%=      5-min Rain = 0
KLD1 152150Z 24005KT 34/M00 A2993 RMK A01 T03371002  RH  012%=      5-min Rain = 0
KLD1 152155Z 34003KT 33/M00 A2993 RMK A01 T03301003  RH  012%=      5-min Rain = 0
KLD1 152200Z 35005G11KT 34/00 A2993 RMK A01 T033600-0  RH  012%=      5-min Rain = 0
KLD1 152205Z 33005G12KT 34/M00 A2993 RMK A01 T03371001  RH  012%=      5-min Rain = 0
KLD1 152210Z 31006G12KT 34/M00 A2993 RMK A01 T03361002  RH  012%=      5-min Rain = 0
KLD1 152215Z 14002KT 33/M00 A2993 RMK A01 T03311003  RH  012%=      5-min Rain = 0
KLD1 152220Z 03003KT 33/M00 A2993 RMK A01 T03321004  RH  012%=      5-min Rain = 0
KLD1 152225Z 03004KT 33/M00 A2992 RMK A01 T03331003  RH  012%=      5-min Rain = 0
KLD1 152230Z 35003G8KT 34/00 A2992 RMK A01 T033800-0  RH  012%=      5-min Rain = 0
KLD1 152235Z 30002KT 34/00 A2992 RMK A01 T033900-0  RH  012%=      5-min Rain = 0
KLD1 152240Z 27005G10KT 33/M00 A2992 RMK A01 T03321001  RH  012%=      5-min Rain = 0
KLD1 152245Z 29007G13KT 33/00 A2991 RMK A01 T03250000  RH  013%=      5-min Rain = 0
KLD1 152250Z 28006G11KT 33/00 A2991 RMK A01 T03280001  RH  013%=      5-min Rain = 0
KLD1 152255Z 26004KT 34/00 A2991 RMK A01 T03350002  RH  012%=      5-min Rain = 0
KLD1 152300Z 27004KT 33/00 A2991 RMK A01 T03330002  RH  012%=      5-min Rain = 0
KLD1 152305Z 25003KT 33/00 A299 RMK A01 T03320001  RH  012%=      5-min Rain = 0
KLD1 152310Z 31006G15KT 33/01 A299 RMK A01 T03310008  RH  013%=      5-min Rain = 0
KLD1 152315Z 29008KT 34/02 A299 RMK A01 T03350019  RH  014%=      5-min Rain = 0
KLD1 152320Z 26008G17KT 34/02 A299 RMK A01 T03370015  RH  013%=      5-min Rain = 0
KLD1 152325Z 23011G20KT 34/02 A299 RMK A01 T03350018  RH  014%=      5-min Rain = 0
KLD1 152330Z 22009G14KT 33/00 A299 RMK A01 T03300002  RH  012%=      5-min Rain = 0
KLD1 152335Z 26008KT 33/00 A299 RMK A01 T03270004  RH  013%=      5-min Rain = 0
KLD1 152340Z 25008KT 33/00 A299 RMK A01 T03280002  RH  013%=      5-min Rain = 0
KLD1 152345Z 25006KT 32/00 A299 RMK A01 T03230002  RH  013%=      5-min Rain = 0
KLD1 152350Z 35003KT 32/01 A299 RMK A01 T03180013  RH  015%=      5-min Rain = 0
KLD1 152355Z 06009G14KT 31/08 A299 RMK A01 T03120080  RH  024%=      5-min Rain = 0
KLD1 160000Z 07019G29KT 31/08 A299 RMK A01 T03070076  RH  024%=      5-min Rain = 0
KLD1 160005Z 07029G35KT 28/11 A2991 RMK A01 T02750114  RH  038%=      5-min Rain = 0
KLD1 160010Z 08024G30KT 26/12 A2992 RMK A01 T02590115  RH  041%=      5-min Rain = 0
KLD1 160015Z 08023KT 26/11 A2992 RMK A01 T02580111  RH  041%=      5-min Rain = 0
KLD1 160020Z 08024KT 26/11 A2991 RMK A01 T02570106  RH  039%=      5-min Rain = 0
KLD1 160025Z 08022KT 26/10 A2992 RMK A01 T02580104  RH  039%=      5-min Rain = 0
KLD1 160030Z 08022G27KT 26/11 A2992 RMK A01 T02580105  RH  039%=      5-min Rain = 0
KLD1 160035Z 07021G27KT 25/12 A2993 RMK A01 T02540115  RH  043%=      5-min Rain = 0
KLD1 160040Z 08020G25KT 24/12 A2992 RMK A01 T02420122  RH  048%=      5-min Rain = 0
KLD1 160045Z 08019G24KT 24/12 A2992 RMK A01 T02380123  RH  049%=      5-min Rain = 0
KLD1 160050Z 08019KT 24/12 A2992 RMK A01 T02380118  RH  048%=      5-min Rain = 0
KLD1 160055Z 08018KT 24/12 A2991 RMK A01 T02380118  RH  048%=      5-min Rain = 0
KLD1 160100Z 09017G22KT 24/12 A2991 RMK A01 T02380116  RH  047%=      5-min Rain = 0
KLD1 160105Z 09015KT 24/11 A2991 RMK A01 T02390114  RH  046%=      5-min Rain = 0
KLD1 160110Z 09015KT 24/11 A2992 RMK A01 T02380112  RH  046%=      5-min Rain = 0
KLD1 160115Z 08014G19KT 24/11 A2992 RMK A01 T02380109  RH  045%=      5-min Rain = 0
KLD1 160120Z 08015KT 24/10 A2992 RMK A01 T02380104  RH  044%=      5-min Rain = 0
KLD1 160125Z 08013KT 24/10 A2993 RMK A01 T02370104  RH  044%=      5-min Rain = 0
KLD1 160130Z 08011KT 24/10 A2993 RMK A01 T02360104  RH  044%=      5-min Rain = 0
KLD1 160135Z 08010KT 24/11 A2994 RMK A01 T02350105  RH  044%=      5-min Rain = 0
KLD1 160140Z 08009KT 23/11 A2994 RMK A01 T02340106  RH  045%=      5-min Rain = 0
KLD1 160145Z 09009KT 23/11 A2994 RMK A01 T02340107  RH  045%=      5-min Rain = 0
KLD1 160150Z 09009KT 24/11 A2995 RMK A01 T02350107  RH  045%=      5-min Rain = 0
KLD1 160155Z 10008KT 24/11 A2996 RMK A01 T02360107  RH  045%=      5-min Rain = 0
KLD1 160200Z 11012KT 24/12 A2996 RMK A01 T02400115  RH  046%=      5-min Rain = 0
KLD1 160205Z 11013G18KT 24/12 A2997 RMK A01 T02440120  RH  047%=      5-min Rain = 0
KLD1 160210Z 11014G19KT 24/12 A2997 RMK A01 T02430121  RH  047%=      5-min Rain = 0
KLD1 160215Z 11012KT 24/12 A2997 RMK A01 T02430121  RH  048%=      5-min Rain = 0
KLD1 160220Z 12011G16KT 24/12 A2998 RMK A01 T02420122  RH  048%=      5-min Rain = 0
KLD1 160225Z 12009KT 24/12 A2998 RMK A01 T02410123  RH  048%=      5-min Rain = 0
KLD1 160230Z 13010KT 24/12 A2998 RMK A01 T02410122  RH  048%=      5-min Rain = 0
KLD1 160235Z 11008KT 24/12 A2999 RMK A01 T02410122  RH  048%=      5-min Rain = 0
KLD1 160240Z 07008KT 24/12 A30 RMK A01 T02390122  RH  049%=      5-min Rain = 0
KLD1 160245Z 04011G16KT 24/13 A30 RMK A01 T02380128  RH  051%=      5-min Rain = 0
KLD1 160250Z 04016G24KT 23/13 A3001 RMK A01 T02340129  RH  053%=      5-min Rain = 0
KLD1 160255Z 05014G19KT 21/13 A3001 RMK A01 T02140132  RH  061%=      5-min Rain = 0
KLD1 160300Z 07010KT 21/13 A3001 RMK A01 T02100134  RH  063%=      5-min Rain = 0
KLD1 160305Z 08008KT 21/13 A3001 RMK A01 T02100134  RH  063%=      5-min Rain = 0
KLD1 160310Z 05011G16KT 21/13 A3001 RMK A01 T02100134  RH  063%=      5-min Rain = 0
KLD1 160315Z 05013G20KT 21/13 A3001 RMK A01 T02080128  RH  061%=      5-min Rain = 0
KLD1 160320Z 05014G20KT 21/12 A3001 RMK A01 T02070123  RH  060%=      5-min Rain = 0
KLD1 160325Z 07009KT 21/12 A3002 RMK A01 T02050122  RH  060%=      5-min Rain = 0
KLD1 160330Z 05011KT 21/13 A3002 RMK A01 T02060125  RH  061%=      5-min Rain = 0
KLD1 160335Z 05012KT 21/13 A3002 RMK A01 T02060125  RH  061%=      5-min Rain = 0
KLD1 160340Z 06011KT 21/12 A3002 RMK A01 T02050124  RH  061%=      5-min Rain = 0
KLD1 160345Z 07010KT 20/13 A3002 RMK A01 T02040125  RH  062%=      5-min Rain = 0
KLD1 160350Z 08010KT 20/13 A3002 RMK A01 T02040126  RH  062%=      5-min Rain = 0
KLD1 160355Z 06010KT 20/13 A3002 RMK A01 T02020126  RH  063%=      5-min Rain = 0
KLD1 160400Z 06009KT 20/13 A3002 RMK A01 T02010126  RH  063%=      5-min Rain = 0
KLD1 160405Z 06009KT 20/13 A3003 RMK A01 T02000125  RH  063%=      5-min Rain = 0
KLD1 160410Z 07011KT 20/12 A3003 RMK A01 T02000124  RH  063%=      5-min Rain = 0
KLD1 160415Z 08010KT 20/12 A3002 RMK A01 T02010123  RH  062%=      5-min Rain = 0
KLD1 160420Z 08010KT 20/12 A3002 RMK A01 T02000123  RH  062%=      5-min Rain = 0
KLD1 160425Z 08009KT 20/12 A3002 RMK A01 T01990121  RH  062%=      5-min Rain = 0
KLD1 160430Z 07008KT 20/12 A3003 RMK A01 T01990120  RH  061%=      5-min Rain = 0
KLD1 160435Z 09006KT 20/12 A3003 RMK A01 T01970119  RH  062%=      5-min Rain = 0
KLD1 160440Z 10007KT 20/12 A3003 RMK A01 T01960120  RH  063%=      5-min Rain = 0
KLD1 160445Z 11008KT 20/12 A3004 RMK A01 T01960119  RH  062%=      5-min Rain = 0
KLD1 160450Z 11008KT 20/12 A3003 RMK A01 T01970119  RH  062%=      5-min Rain = 0
KLD1 160455Z 11010KT 20/12 A3003 RMK A01 T01960119  RH  062%=      5-min Rain = 0

Page generated in 0.0352 seconds.